sensor_id;sensor_type;location;lat;lon;timestamp;pressure;altitude;pressure_sealevel;temperature;humidity
76011;BME280;64701;43.536;1.478;2023-01-10T00:01:53;100505.34;;;8.22;85.62
76011;BME280;64701;43.536;1.478;2023-01-10T00:04:20;100502.53;;;8.23;85.24
76011;BME280;64701;43.536;1.478;2023-01-10T00:06:46;100499.06;;;8.23;85.33
76011;BME280;64701;43.536;1.478;2023-01-10T00:09:11;100489.34;;;8.23;84.81
76011;BME280;64701;43.536;1.478;2023-01-10T00:11:37;100498.25;;;8.22;84.73
76011;BME280;64701;43.536;1.478;2023-01-10T00:14:22;100514.09;;;8.22;84.92
76011;BME280;64701;43.536;1.478;2023-01-10T00:16:48;100517.34;;;8.16;84.99
76011;BME280;64701;43.536;1.478;2023-01-10T00:19:13;100528.88;;;8.15;84.61
76011;BME280;64701;43.536;1.478;2023-01-10T00:21:38;100526.22;;;8.15;84.93
76011;BME280;64701;43.536;1.478;2023-01-10T00:24:04;100519.97;;;8.16;84.77
76011;BME280;64701;43.536;1.478;2023-01-10T00:26:48;100513.69;;;8.17;84.65
76011;BME280;64701;43.536;1.478;2023-01-10T00:29:17;100497.88;;;8.17;84.61
76011;BME280;64701;43.536;1.478;2023-01-10T00:31:43;100495.91;;;8.19;84.54
76011;BME280;64701;43.536;1.478;2023-01-10T00:34:08;100505.50;;;8.20;84.47
76011;BME280;64701;43.536;1.478;2023-01-10T00:36:33;100496.59;;;8.21;84.74
76011;BME280;64701;43.536;1.478;2023-01-10T00:38:59;100490.19;;;8.24;84.66
76011;BME280;64701;43.536;1.478;2023-01-10T00:41:24;100496.97;;;8.26;84.42
76011;BME280;64701;43.536;1.478;2023-01-10T00:44:08;100512.66;;;8.28;84.48
76011;BME280;64701;43.536;1.478;2023-01-10T00:46:33;100526.00;;;8.26;84.72
76011;BME280;64701;43.536;1.478;2023-01-10T00:48:58;100537.63;;;8.33;84.51
76011;BME280;64701;43.536;1.478;2023-01-10T00:51:24;100527.06;;;8.33;84.51
76011;BME280;64701;43.536;1.478;2023-01-10T00:53:49;100535.66;;;8.35;84.28
76011;BME280;64701;43.536;1.478;2023-01-10T00:56:15;100544.25;;;8.37;84.21
76011;BME280;64701;43.536;1.478;2023-01-10T00:58:40;100548.41;;;8.40;84.27
76011;BME280;64701;43.536;1.478;2023-01-10T01:01:05;100545.31;;;8.44;84.08
76011;BME280;64701;43.536;1.478;2023-01-10T01:03:30;100534.75;;;8.44;84.04
76011;BME280;64701;43.536;1.478;2023-01-10T01:05:56;100528.63;;;8.44;83.76
76011;BME280;64701;43.536;1.478;2023-01-10T01:08:21;100525.84;;;8.45;83.91
76011;BME280;64701;43.536;1.478;2023-01-10T01:10:46;100529.16;;;8.47;83.86
76011;BME280;64701;43.536;1.478;2023-01-10T01:13:19;100535.41;;;8.46;84.07
76011;BME280;64701;43.536;1.478;2023-01-10T01:15:44;100519.41;;;8.48;83.66
76011;BME280;64701;43.536;1.478;2023-01-10T01:18:14;100521.91;;;8.49;83.74
76011;BME280;64701;43.536;1.478;2023-01-10T01:20:40;100528.53;;;8.53;83.86
76011;BME280;64701;43.536;1.478;2023-01-10T01:23:05;100533.81;;;8.53;83.77
76011;BME280;64701;43.536;1.478;2023-01-10T01:25:31;100537.13;;;8.55;83.73
76011;BME280;64701;43.536;1.478;2023-01-10T01:27:56;100537.81;;;8.57;83.59
76011;BME280;64701;43.536;1.478;2023-01-10T01:30:21;100542.78;;;8.60;83.79
76011;BME280;64701;43.536;1.478;2023-01-10T01:32:46;100538.34;;;8.61;83.62
76011;BME280;64701;43.536;1.478;2023-01-10T01:35:13;100529.28;;;8.64;83.59
76011;BME280;64701;43.536;1.478;2023-01-10T01:37:39;100538.84;;;8.65;83.93
76011;BME280;64701;43.536;1.478;2023-01-10T01:40:05;100543.00;;;8.67;83.53
76011;BME280;64701;43.536;1.478;2023-01-10T01:42:32;100544.81;;;8.67;84.07
76011;BME280;64701;43.536;1.478;2023-01-10T01:47:32;100538.69;;;8.66;84.31
76011;BME280;64701;43.536;1.478;2023-01-10T01:49:59;100542.03;;;8.68;84.35
76011;BME280;64701;43.536;1.478;2023-01-10T01:52:25;100545.94;;;8.64;84.66
76011;BME280;64701;43.536;1.478;2023-01-10T01:54:52;100539.84;;;8.64;84.49
76011;BME280;64701;43.536;1.478;2023-01-10T01:57:20;100534.56;;;8.64;84.98
76011;BME280;64701;43.536;1.478;2023-01-10T01:59:49;100541.47;;;8.65;85.47
76011;BME280;64701;43.536;1.478;2023-01-10T02:02:19;100532.59;;;8.66;85.17
76011;BME280;64701;43.536;1.478;2023-01-10T02:04:48;100534.72;;;8.62;86.08
76011;BME280;64701;43.536;1.478;2023-01-10T02:07:15;100531.25;;;8.62;86.23
76011;BME280;64701;43.536;1.478;2023-01-10T02:09:50;100529.94;;;8.66;85.81
76011;BME280;64701;43.536;1.478;2023-01-10T02:12:17;100526.31;;;8.67;85.86
76011;BME280;64701;43.536;1.478;2023-01-10T02:14:43;100525.00;;;8.63;86.26
76011;BME280;64701;43.536;1.478;2023-01-10T02:17:09;100536.81;;;8.58;86.49
76011;BME280;64701;43.536;1.478;2023-01-10T02:27:13;100520.69;;;8.62;86.38
76011;BME280;64701;43.536;1.478;2023-01-10T02:32:26;100525.66;;;8.65;86.17
76011;BME280;64701;43.536;1.478;2023-01-10T02:39:57;100524.00;;;8.64;86.50
76011;BME280;64701;43.536;1.478;2023-01-10T02:42:28;100531.25;;;8.62;86.44
76011;BME280;64701;43.536;1.478;2023-01-10T02:45:11;100526.66;;;8.64;86.22
76011;BME280;64701;43.536;1.478;2023-01-10T02:47:40;100520.69;;;8.62;86.17
76011;BME280;64701;43.536;1.478;2023-01-10T02:52:58;100505.31;;;8.57;85.91
76011;BME280;64701;43.536;1.478;2023-01-10T02:55:27;100506.94;;;8.58;85.63
76011;BME280;64701;43.536;1.478;2023-01-10T02:58:06;100507.13;;;8.56;85.77
76011;BME280;64701;43.536;1.478;2023-01-10T03:10:28;100487.00;;;8.55;85.09
76011;BME280;64701;43.536;1.478;2023-01-10T03:12:57;100496.88;;;8.53;85.00
76011;BME280;64701;43.536;1.478;2023-01-10T03:15:26;100501.50;;;8.51;85.21
76011;BME280;64701;43.536;1.478;2023-01-10T03:17:54;100502.63;;;8.49;85.68
76011;BME280;64701;43.536;1.478;2023-01-10T03:20:21;100507.38;;;8.45;85.49
76011;BME280;64701;43.536;1.478;2023-01-10T03:22:47;100500.44;;;8.44;85.59
76011;BME280;64701;43.536;1.478;2023-01-10T03:25:13;100501.41;;;8.43;85.86
76011;BME280;64701;43.536;1.478;2023-01-10T03:32:36;100507.31;;;8.37;85.55
76011;BME280;64701;43.536;1.478;2023-01-10T03:35:01;100507.31;;;8.37;85.13
76011;BME280;64701;43.536;1.478;2023-01-10T03:40:15;100505.66;;;8.36;85.72
76011;BME280;64701;43.536;1.478;2023-01-10T03:45:59;100501.06;;;8.38;84.90
76011;BME280;64701;43.536;1.478;2023-01-10T03:48:28;100493.78;;;8.40;84.78
76011;BME280;64701;43.536;1.478;2023-01-10T03:50:56;100497.25;;;8.41;84.62
76011;BME280;64701;43.536;1.478;2023-01-10T03:53:24;100502.41;;;8.42;84.65
76011;BME280;64701;43.536;1.478;2023-01-10T03:55:49;100512.25;;;8.40;84.11
76011;BME280;64701;43.536;1.478;2023-01-10T03:58:14;100505.34;;;8.39;84.34
76011;BME280;64701;43.536;1.478;2023-01-10T04:00:41;100514.25;;;8.38;84.13
76011;BME280;64701;43.536;1.478;2023-01-10T04:03:06;100518.69;;;8.38;83.79
76011;BME280;64701;43.536;1.478;2023-01-10T04:05:33;100524.13;;;8.36;84.01
76011;BME280;64701;43.536;1.478;2023-01-10T04:07:59;100525.09;;;8.35;83.74
76011;BME280;64701;43.536;1.478;2023-01-10T04:10:24;100521.13;;;8.31;83.82
76011;BME280;64701;43.536;1.478;2023-01-10T04:12:51;100527.66;;;8.27;83.57
76011;BME280;64701;43.536;1.478;2023-01-10T04:15:16;100528.78;;;8.25;83.49
76011;BME280;64701;43.536;1.478;2023-01-10T04:17:41;100540.47;;;8.22;83.39
76011;BME280;64701;43.536;1.478;2023-01-10T04:20:07;100542.72;;;8.17;83.29
76011;BME280;64701;43.536;1.478;2023-01-10T04:22:33;100546.63;;;8.13;83.32
76011;BME280;64701;43.536;1.478;2023-01-10T04:24:58;100548.59;;;8.11;83.20
76011;BME280;64701;43.536;1.478;2023-01-10T04:27:23;100546.56;;;8.05;82.98
76011;BME280;64701;43.536;1.478;2023-01-10T04:29:48;100554.78;;;8.02;83.15
76011;BME280;64701;43.536;1.478;2023-01-10T04:32:14;100549.78;;;7.99;83.02
76011;BME280;64701;43.536;1.478;2023-01-10T04:34:39;100551.91;;;7.95;83.29
76011;BME280;64701;43.536;1.478;2023-01-10T04:37:04;100554.03;;;7.92;83.04
76011;BME280;64701;43.536;1.478;2023-01-10T04:39:30;100542.94;;;7.88;83.08
76011;BME280;64701;43.536;1.478;2023-01-10T04:41:55;100534.66;;;7.83;83.15
76011;BME280;64701;43.536;1.478;2023-01-10T04:44:20;100539.22;;;7.81;83.00
76011;BME280;64701;43.536;1.478;2023-01-10T04:46:45;100539.41;;;7.79;83.23
76011;BME280;64701;43.536;1.478;2023-01-10T04:49:11;100536.91;;;7.78;83.26
76011;BME280;64701;43.536;1.478;2023-01-10T04:51:36;100543.00;;;7.78;82.89
76011;BME280;64701;43.536;1.478;2023-01-10T04:54:02;100539.41;;;7.79;82.71
76011;BME280;64701;43.536;1.478;2023-01-10T04:56:27;100541.34;;;7.77;82.84
76011;BME280;64701;43.536;1.478;2023-01-10T04:58:52;100536.59;;;7.81;82.90
76011;BME280;64701;43.536;1.478;2023-01-10T05:01:19;100540.06;;;7.82;82.72
76011;BME280;64701;43.536;1.478;2023-01-10T05:03:52;100542.56;;;7.83;82.53
76011;BME280;64701;43.536;1.478;2023-01-10T05:06:17;100531.88;;;7.85;82.76
76011;BME280;64701;43.536;1.478;2023-01-10T05:08:43;100534.50;;;7.85;82.59
76011;BME280;64701;43.536;1.478;2023-01-10T05:11:09;100537.78;;;7.87;82.72
76011;BME280;64701;43.536;1.478;2023-01-10T05:13:34;100531.56;;;7.88;82.47
76011;BME280;64701;43.536;1.478;2023-01-10T05:15:59;100532.38;;;7.88;82.62
76011;BME280;64701;43.536;1.478;2023-01-10T05:18:25;100539.31;;;7.89;82.17
76011;BME280;64701;43.536;1.478;2023-01-10T05:20:51;100544.59;;;7.89;82.20
76011;BME280;64701;43.536;1.478;2023-01-10T05:23:16;100545.44;;;7.90;81.88
76011;BME280;64701;43.536;1.478;2023-01-10T05:25:42;100540.84;;;7.92;81.96
76011;BME280;64701;43.536;1.478;2023-01-10T05:28:07;100537.06;;;7.94;82.13
76011;BME280;64701;43.536;1.478;2023-01-10T05:30:33;100542.34;;;7.94;81.53
76011;BME280;64701;43.536;1.478;2023-01-10T05:32:58;100542.34;;;7.94;81.48
76011;BME280;64701;43.536;1.478;2023-01-10T05:35:23;100532.63;;;7.95;81.27
76011;BME280;64701;43.536;1.478;2023-01-10T05:37:49;100529.28;;;7.93;80.88
76011;BME280;64701;43.536;1.478;2023-01-10T05:40:14;100525.84;;;7.92;81.36
76011;BME280;64701;43.536;1.478;2023-01-10T05:42:40;100537.38;;;7.91;81.26
76011;BME280;64701;43.536;1.478;2023-01-10T05:45:05;100537.19;;;7.93;80.91
76011;BME280;64701;43.536;1.478;2023-01-10T05:47:30;100539.84;;;7.93;80.96
76011;BME280;64701;43.536;1.478;2023-01-10T05:49:56;100545.13;;;7.93;80.93
76011;BME280;64701;43.536;1.478;2023-01-10T05:52:21;100550.25;;;7.94;81.09
76011;BME280;64701;43.536;1.478;2023-01-10T05:54:46;100559.00;;;7.95;80.87
76011;BME280;64701;43.536;1.478;2023-01-10T05:57:11;100558.00;;;7.96;80.66
76011;BME280;64701;43.536;1.478;2023-01-10T05:59:37;100562.31;;;7.97;80.76
76011;BME280;64701;43.536;1.478;2023-01-10T06:02:02;100560.34;;;7.99;80.59
76011;BME280;64701;43.536;1.478;2023-01-10T06:04:27;100554.09;;;8.00;80.56
76011;BME280;64701;43.536;1.478;2023-01-10T06:06:53;100562.84;;;8.00;80.48
76011;BME280;64701;43.536;1.478;2023-01-10T06:09:18;100562.84;;;8.00;80.16
76011;BME280;64701;43.536;1.478;2023-01-10T06:11:43;100553.94;;;8.01;80.15
76011;BME280;64701;43.536;1.478;2023-01-10T06:14:09;100557.28;;;8.03;80.16
76011;BME280;64701;43.536;1.478;2023-01-10T06:16:34;100555.47;;;8.04;80.11
76011;BME280;64701;43.536;1.478;2023-01-10T06:18:59;100557.28;;;8.03;79.95
76011;BME280;64701;43.536;1.478;2023-01-10T06:21:25;100555.28;;;8.05;79.68
76011;BME280;64701;43.536;1.478;2023-01-10T06:23:50;100538.34;;;8.08;79.80
76011;BME280;64701;43.536;1.478;2023-01-10T06:26:15;100526.66;;;8.10;79.87
76011;BME280;64701;43.536;1.478;2023-01-10T06:28:42;100517.75;;;8.11;80.06
76011;BME280;64701;43.536;1.478;2023-01-10T06:31:08;100516.94;;;8.11;79.27
76011;BME280;64701;43.536;1.478;2023-01-10T06:33:33;100507.22;;;8.11;79.71
76011;BME280;64701;43.536;1.478;2023-01-10T06:35:59;100499.31;;;8.11;79.33
76011;BME280;64701;43.536;1.478;2023-01-10T06:38:24;100517.94;;;8.10;78.91
76011;BME280;64701;43.536;1.478;2023-01-10T06:40:49;100532.38;;;8.06;78.29
76011;BME280;64701;43.536;1.478;2023-01-10T06:43:14;100546.72;;;8.03;78.03
76011;BME280;64701;43.536;1.478;2023-01-10T06:45:40;100549.78;;;7.99;77.88
76011;BME280;64701;43.536;1.478;2023-01-10T06:48:05;100565.34;;;8.02;78.02
76011;BME280;64701;43.536;1.478;2023-01-10T06:50:31;100559.22;;;8.01;77.58
76011;BME280;64701;43.536;1.478;2023-01-10T06:52:57;100567.81;;;8.03;77.81
76011;BME280;64701;43.536;1.478;2023-01-10T06:55:22;100550.84;;;8.06;77.67
76011;BME280;64701;43.536;1.478;2023-01-10T06:57:48;100549.59;;;8.10;78.27
76011;BME280;64701;43.536;1.478;2023-01-10T07:00:13;100551.09;;;8.12;78.27
76011;BME280;64701;43.536;1.478;2023-01-10T07:02:39;100541.38;;;8.13;78.25
76011;BME280;64701;43.536;1.478;2023-01-10T07:05:04;100537.75;;;8.14;78.39
76011;BME280;64701;43.536;1.478;2023-01-10T07:07:29;100553.56;;;8.14;78.12
76011;BME280;64701;43.536;1.478;2023-01-10T07:09:55;100559.69;;;8.14;78.12
76011;BME280;64701;43.536;1.478;2023-01-10T07:12:20;100561.63;;;8.12;77.89
76011;BME280;64701;43.536;1.478;2023-01-10T07:14:45;100567.75;;;8.13;77.81
76011;BME280;64701;43.536;1.478;2023-01-10T07:17:10;100573.03;;;8.13;77.32
76011;BME280;64701;43.536;1.478;2023-01-10T07:19:36;100571.06;;;8.15;77.47
76011;BME280;64701;43.536;1.478;2023-01-10T07:22:01;100565.78;;;8.15;77.19
76011;BME280;64701;43.536;1.478;2023-01-10T07:24:26;100556.59;;;8.19;77.26
76011;BME280;64701;43.536;1.478;2023-01-10T07:26:53;100554.94;;;8.18;76.75
76011;BME280;64701;43.536;1.478;2023-01-10T07:29:18;100555.25;;;8.15;76.39
76011;BME280;64701;43.536;1.478;2023-01-10T07:31:44;100554.66;;;8.21;77.32
76011;BME280;64701;43.536;1.478;2023-01-10T07:34:09;100560.56;;;8.23;77.35
76011;BME280;64701;43.536;1.478;2023-01-10T07:36:34;100551.69;;;8.24;76.99
76011;BME280;64701;43.536;1.478;2023-01-10T07:39:01;100569.31;;;8.24;76.24
76011;BME280;64701;43.536;1.478;2023-01-10T07:41:26;100566.53;;;8.25;76.10
76011;BME280;64701;43.536;1.478;2023-01-10T07:43:52;100573.47;;;8.26;76.29
76011;BME280;64701;43.536;1.478;2023-01-10T07:46:17;100575.16;;;8.27;75.73
76011;BME280;64701;43.536;1.478;2023-01-10T07:48:43;100590.81;;;8.29;76.16
76011;BME280;64701;43.536;1.478;2023-01-10T07:51:10;100594.03;;;8.32;76.04
76011;BME280;64701;43.536;1.478;2023-01-10T07:53:35;100594.25;;;8.39;76.37
76011;BME280;64701;43.536;1.478;2023-01-10T07:56:01;100591.16;;;8.43;76.24
76011;BME280;64701;43.536;1.478;2023-01-10T07:58:26;100598.47;;;8.49;75.94
76011;BME280;64701;43.536;1.478;2023-01-10T08:00:55;100592.72;;;8.54;76.02
76011;BME280;64701;43.536;1.478;2023-01-10T08:03:20;100588.97;;;8.56;75.63
76011;BME280;64701;43.536;1.478;2023-01-10T08:05:48;100581.69;;;8.58;75.25
76011;BME280;64701;43.536;1.478;2023-01-10T08:08:13;100599.88;;;8.62;75.44
76011;BME280;64701;43.536;1.478;2023-01-10T08:10:40;100595.13;;;8.65;75.40
76011;BME280;64701;43.536;1.478;2023-01-10T08:13:06;100604.69;;;8.66;74.95
76011;BME280;64701;43.536;1.478;2023-01-10T08:15:31;100603.88;;;8.66;73.70
76011;BME280;64701;43.536;1.478;2023-01-10T08:17:59;100597.31;;;8.70;74.67
76011;BME280;64701;43.536;1.478;2023-01-10T08:20:25;100605.91;;;8.72;74.37
76011;BME280;64701;43.536;1.478;2023-01-10T08:22:50;100608.25;;;8.75;73.91
76011;BME280;64701;43.536;1.478;2023-01-10T08:25:15;100598.06;;;8.80;74.16
76011;BME280;64701;43.536;1.478;2023-01-10T08:27:41;100595.78;;;8.85;73.98
76011;BME280;64701;43.536;1.478;2023-01-10T08:30:06;100591.81;;;8.89;73.99
76011;BME280;64701;43.536;1.478;2023-01-10T08:32:32;100604.13;;;8.98;73.83
76011;BME280;64701;43.536;1.478;2023-01-10T08:34:57;100599.72;;;9.07;72.94
76011;BME280;64701;43.536;1.478;2023-01-10T08:37:22;100598.66;;;9.25;72.61
76011;BME280;64701;43.536;1.478;2023-01-10T08:39:48;100582.25;;;9.48;71.77
76011;BME280;64701;43.536;1.478;2023-01-10T08:42:13;100583.00;;;9.66;71.24
76011;BME280;64701;43.536;1.478;2023-01-10T08:44:40;100589.00;;;9.76;70.92
76011;BME280;64701;43.536;1.478;2023-01-10T08:47:05;100580.09;;;9.85;71.66
76011;BME280;64701;43.536;1.478;2023-01-10T08:49:31;100579.78;;;9.96;71.36
76011;BME280;64701;43.536;1.478;2023-01-10T08:51:56;100575.34;;;10.05;72.05
76011;BME280;64701;43.536;1.478;2023-01-10T08:54:21;100579.47;;;10.07;70.58
76011;BME280;64701;43.536;1.478;2023-01-10T08:56:47;100566.91;;;10.09;71.08
76011;BME280;64701;43.536;1.478;2023-01-10T08:59:12;100582.50;;;10.12;69.77
76011;BME280;64701;43.536;1.478;2023-01-10T09:01:37;100568.28;;;10.21;69.83
76011;BME280;64701;43.536;1.478;2023-01-10T09:04:02;100566.00;;;10.51;70.57
76011;BME280;64701;43.536;1.478;2023-01-10T09:06:29;100551.19;;;11.05;68.54
76011;BME280;64701;43.536;1.478;2023-01-10T09:08:54;100537.41;;;11.57;67.25
76011;BME280;64701;43.536;1.478;2023-01-10T09:11:20;100537.28;;;11.89;66.23
76011;BME280;64701;43.536;1.478;2023-01-10T09:13:47;100542.59;;;12.12;67.31
76011;BME280;64701;43.536;1.478;2023-01-10T09:16:13;100544.22;;;12.58;67.02
76011;BME280;64701;43.536;1.478;2023-01-10T09:18:38;100549.69;;;12.80;65.26
76011;BME280;64701;43.536;1.478;2023-01-10T09:21:03;100554.94;;;13.02;64.63
76011;BME280;64701;43.536;1.478;2023-01-10T09:23:28;100553.06;;;13.26;65.14
76011;BME280;64701;43.536;1.478;2023-01-10T09:25:54;100564.13;;;13.59;61.91
76011;BME280;64701;43.536;1.478;2023-01-10T09:28:21;100568.28;;;13.97;61.31
76011;BME280;64701;43.536;1.478;2023-01-10T09:30:48;100567.81;;;14.29;59.09
76011;BME280;64701;43.536;1.478;2023-01-10T09:33:13;100574.00;;;14.51;58.75
76011;BME280;64701;43.536;1.478;2023-01-10T09:35:40;100578.44;;;14.65;56.54
76011;BME280;64701;43.536;1.478;2023-01-10T09:38:06;100585.19;;;14.89;57.41
76011;BME280;64701;43.536;1.478;2023-01-10T09:40:38;100583.94;;;15.20;56.23
76011;BME280;64701;43.536;1.478;2023-01-10T09:48:02;100589.63;;;16.46;56.14
76011;BME280;64701;43.536;1.478;2023-01-10T09:50:38;100601.22;;;16.80;54.15
76011;BME280;64701;43.536;1.478;2023-01-10T09:53:11;100604.88;;;17.18;53.10
76011;BME280;64701;43.536;1.478;2023-01-10T09:55:38;100599.88;;;17.61;56.21
76011;BME280;64701;43.536;1.478;2023-01-10T09:58:14;100603.22;;;17.94;53.97
76011;BME280;64701;43.536;1.478;2023-01-10T10:00:48;100605.84;;;18.14;49.09
76011;BME280;64701;43.536;1.478;2023-01-10T10:05:43;100590.19;;;18.74;51.16
76011;BME280;64701;43.536;1.478;2023-01-10T10:08:11;100595.00;;;18.90;44.85
76011;BME280;64701;43.536;1.478;2023-01-10T10:10:41;100588.22;;;19.12;47.81
76011;BME280;64701;43.536;1.478;2023-01-10T10:13:10;100588.03;;;19.07;47.19
76011;BME280;64701;43.536;1.478;2023-01-10T10:15:42;100582.41;;;19.34;45.27
76011;BME280;64701;43.536;1.478;2023-01-10T10:31:43;100577.69;;;20.73;47.24
76011;BME280;64701;43.536;1.478;2023-01-10T10:34:32;100576.63;;;20.74;47.03
76011;BME280;64701;43.536;1.478;2023-01-10T10:37:04;100563.53;;;20.90;46.73
76011;BME280;64701;43.536;1.478;2023-01-10T10:39:52;100558.28;;;20.83;41.20
76011;BME280;64701;43.536;1.478;2023-01-10T10:42:18;100574.31;;;21.36;46.29
76011;BME280;64701;43.536;1.478;2023-01-10T10:47:16;100563.75;;;22.26;46.68
76011;BME280;64701;43.536;1.478;2023-01-10T10:54:47;100549.94;;;23.45;40.41
76011;BME280;64701;43.536;1.478;2023-01-10T10:57:12;100535.78;;;23.81;39.65
76011;BME280;64701;43.536;1.478;2023-01-10T10:59:37;100542.22;;;24.24;41.74
76011;BME280;64701;43.536;1.478;2023-01-10T11:02:09;100532.50;;;24.28;41.45
76011;BME280;64701;43.536;1.478;2023-01-10T11:04:35;100534.81;;;24.46;41.55
76011;BME280;64701;43.536;1.478;2023-01-10T11:07:01;100530.53;;;24.18;37.96
76011;BME280;64701;43.536;1.478;2023-01-10T11:09:26;100535.06;;;24.76;39.18
76011;BME280;64701;43.536;1.478;2023-01-10T11:11:55;100533.00;;;24.89;39.75
76011;BME280;64701;43.536;1.478;2023-01-10T11:14:39;100526.28;;;24.59;35.94
76011;BME280;64701;43.536;1.478;2023-01-10T11:19:51;100529.97;;;25.27;40.23
76011;BME280;64701;43.536;1.478;2023-01-10T11:22:18;100526.78;;;25.45;33.46
76011;BME280;64701;43.536;1.478;2023-01-10T11:25:18;100518.78;;;25.66;34.49
76011;BME280;64701;43.536;1.478;2023-01-10T11:27:44;100511.81;;;26.10;34.52
76011;BME280;64701;43.536;1.478;2023-01-10T11:30:16;100491.19;;;26.65;38.32
76011;BME280;64701;43.536;1.478;2023-01-10T11:33:02;100491.66;;;27.12;34.15
76011;BME280;64701;43.536;1.478;2023-01-10T11:35:30;100495.81;;;27.64;33.96
76011;BME280;64701;43.536;1.478;2023-01-10T11:40:28;100480.31;;;27.59;30.44
76011;BME280;64701;43.536;1.478;2023-01-10T11:42:55;100484.47;;;27.52;34.30
76011;BME280;64701;43.536;1.478;2023-01-10T11:45:23;100482.81;;;28.00;32.03
76011;BME280;64701;43.536;1.478;2023-01-10T11:48:05;100476.19;;;28.45;33.81
76011;BME280;64701;43.536;1.478;2023-01-10T11:50:33;100481.63;;;29.03;33.56
76011;BME280;64701;43.536;1.478;2023-01-10T11:52:59;100473.72;;;29.86;32.37
76011;BME280;64701;43.536;1.478;2023-01-10T11:55:25;100465.72;;;30.60;27.53
76011;BME280;64701;43.536;1.478;2023-01-10T12:00:30;100470.94;;;31.79;30.73
76011;BME280;64701;43.536;1.478;2023-01-10T12:02:55;100466.75;;;32.40;30.74
76011;BME280;64701;43.536;1.478;2023-01-10T12:05:21;100455.53;;;32.90;28.23
76011;BME280;64701;43.536;1.478;2023-01-10T12:08:00;100446.56;;;33.15;29.47
76011;BME280;64701;43.536;1.478;2023-01-10T12:10:31;100439.41;;;33.36;28.25
76011;BME280;64701;43.536;1.478;2023-01-10T12:12:57;100430.31;;;32.70;25.51
76011;BME280;64701;43.536;1.478;2023-01-10T12:17:48;100433.44;;;31.03;30.07
76011;BME280;64701;43.536;1.478;2023-01-10T12:20:14;100428.09;;;29.87;30.68
76011;BME280;64701;43.536;1.478;2023-01-10T12:22:41;100431.16;;;29.67;28.79
76011;BME280;64701;43.536;1.478;2023-01-10T12:27:42;100413.53;;;32.19;28.98
76011;BME280;64701;43.536;1.478;2023-01-10T12:30:14;100409.81;;;32.15;25.41
76011;BME280;64701;43.536;1.478;2023-01-10T12:32:43;100410.69;;;31.79;28.16
76011;BME280;64701;43.536;1.478;2023-01-10T12:35:20;100411.56;;;32.11;26.25
76011;BME280;64701;43.536;1.478;2023-01-10T12:37:47;100397.97;;;31.61;26.49
76011;BME280;64701;43.536;1.478;2023-01-10T12:40:57;100403.31;;;31.88;26.94
76011;BME280;64701;43.536;1.478;2023-01-10T12:43:27;100393.94;;;33.13;25.86
76011;BME280;64701;43.536;1.478;2023-01-10T12:46:09;100391.47;;;34.40;25.96
76011;BME280;64701;43.536;1.478;2023-01-10T12:48:58;100393.44;;;34.31;22.58
76011;BME280;64701;43.536;1.478;2023-01-10T12:51:26;100380.03;;;34.68;21.78
76011;BME280;64701;43.536;1.478;2023-01-10T12:56:20;100383.44;;;34.18;21.47
76011;BME280;64701;43.536;1.478;2023-01-10T12:58:47;100379.06;;;33.14;23.12
76011;BME280;64701;43.536;1.478;2023-01-10T13:01:19;100375.34;;;32.53;25.21
76011;BME280;64701;43.536;1.478;2023-01-10T13:03:48;100377.72;;;32.77;23.07
76011;BME280;64701;43.536;1.478;2023-01-10T13:06:21;100384.06;;;32.55;24.09
76011;BME280;64701;43.536;1.478;2023-01-10T13:08:48;100380.53;;;33.11;24.82
76011;BME280;64701;43.536;1.478;2023-01-10T13:11:15;100372.31;;;34.06;24.59
76011;BME280;64701;43.536;1.478;2023-01-10T13:13:44;100372.69;;;34.80;24.08
76011;BME280;64701;43.536;1.478;2023-01-10T13:21:27;100372.91;;;36.94;22.79
76011;BME280;64701;43.536;1.478;2023-01-10T13:23:53;100376.47;;;37.06;22.94
76011;BME280;64701;43.536;1.478;2023-01-10T13:26:21;100377.84;;;37.52;23.29
76011;BME280;64701;43.536;1.478;2023-01-10T13:28:54;100381.25;;;38.17;21.90
76011;BME280;64701;43.536;1.478;2023-01-10T13:31:32;100365.75;;;38.60;21.06
76011;BME280;64701;43.536;1.478;2023-01-10T13:36:29;100367.34;;;38.61;20.51
76011;BME280;64701;43.536;1.478;2023-01-10T13:39:03;100360.34;;;37.48;18.77
76011;BME280;64701;43.536;1.478;2023-01-10T13:44:55;100348.38;;;38.94;20.01
76011;BME280;64701;43.536;1.478;2023-01-10T13:50:01;100352.25;;;39.28;17.96
76011;BME280;64701;43.536;1.478;2023-01-10T14:03:38;100348.50;;;38.04;18.79
76011;BME280;64701;43.536;1.478;2023-01-10T14:06:11;100341.28;;;36.79;17.94
76011;BME280;64701;43.536;1.478;2023-01-10T14:08:37;100343.75;;;37.20;19.19
76011;BME280;64701;43.536;1.478;2023-01-10T14:11:09;100343.47;;;36.86;19.62
76011;BME280;64701;43.536;1.478;2023-01-10T14:13:35;100340.13;;;35.86;18.03
76011;BME280;64701;43.536;1.478;2023-01-10T14:16:00;100343.13;;;35.40;19.67
76011;BME280;64701;43.536;1.478;2023-01-10T14:18:33;100345.78;;;35.36;19.10
76011;BME280;64701;43.536;1.478;2023-01-10T14:21:03;100340.50;;;35.97;18.65
76011;BME280;64701;43.536;1.478;2023-01-10T14:23:42;100343.00;;;36.47;19.00
76011;BME280;64701;43.536;1.478;2023-01-10T14:26:25;100336.81;;;36.74;20.15
76011;BME280;64701;43.536;1.478;2023-01-10T14:28:53;100327.59;;;36.22;19.70
76011;BME280;64701;43.536;1.478;2023-01-10T14:31:20;100322.59;;;35.37;19.01
76011;BME280;64701;43.536;1.478;2023-01-10T14:33:46;100324.56;;;35.70;19.44
76011;BME280;64701;43.536;1.478;2023-01-10T14:36:15;100324.03;;;35.55;21.50
76011;BME280;64701;43.536;1.478;2023-01-10T14:38:42;100324.03;;;34.64;19.23
76011;BME280;64701;43.536;1.478;2023-01-10T14:43:53;100327.28;;;33.47;21.74
76011;BME280;64701;43.536;1.478;2023-01-10T14:46:25;100335.75;;;32.37;22.07
76011;BME280;64701;43.536;1.478;2023-01-10T14:48:52;100329.63;;;31.34;22.89
76011;BME280;64701;43.536;1.478;2023-01-10T14:51:21;100339.22;;;30.40;25.77
76011;BME280;64701;43.536;1.478;2023-01-10T14:53:53;100343.09;;;29.42;26.08